sensor_id;sensor_type;location;lat;lon;timestamp;temperature;humidity
1107;DHT22;540;49.448;8.612;2022-12-10T15:53:11;2.60;99.90
1107;DHT22;540;49.448;8.612;2022-12-10T15:55:39;2.80;99.90
1107;DHT22;540;49.448;8.612;2022-12-10T15:58:10;2.80;99.90
1107;DHT22;540;49.448;8.612;2022-12-10T16:00:38;2.40;99.90
1107;DHT22;540;49.448;8.612;2022-12-10T16:03:12;3.10;99.90
1107;DHT22;540;49.448;8.612;2022-12-10T16:05:41;3.10;99.90
1107;DHT22;540;49.448;8.612;2022-12-10T16:08:16;2.90;99.90
1107;DHT22;540;49.448;8.612;2022-12-10T16:10:45;2.80;99.90
1107;DHT22;540;49.448;8.612;2022-12-10T16:13:16;3.00;99.90
1107;DHT22;540;49.448;8.612;2022-12-10T16:15:47;2.70;99.90
1107;DHT22;540;49.448;8.612;2022-12-10T16:18:16;2.80;99.90
1107;DHT22;540;49.448;8.612;2022-12-10T16:20:44;2.80;99.90
1107;DHT22;540;49.448;8.612;2022-12-10T16:23:13;2.60;99.90
1107;DHT22;540;49.448;8.612;2022-12-10T16:25:43;2.50;99.90
1107;DHT22;540;49.448;8.612;2022-12-10T16:28:13;2.50;99.90
1107;DHT22;540;49.448;8.612;2022-12-10T16:30:42;2.70;99.90
1107;DHT22;540;49.448;8.612;2022-12-10T16:33:14;2.70;99.90
1107;DHT22;540;49.448;8.612;2022-12-10T16:35:42;2.40;99.90
1107;DHT22;540;49.448;8.612;2022-12-10T16:38:09;2.50;99.90
1107;DHT22;540;49.448;8.612;2022-12-10T16:40:40;2.20;99.90
1107;DHT22;540;49.448;8.612;2022-12-10T16:43:18;2.30;99.90
1107;DHT22;540;49.448;8.612;2022-12-10T16:45:47;2.30;99.90
1107;DHT22;540;49.448;8.612;2022-12-10T16:48:15;2.40;99.90
1107;DHT22;540;49.448;8.612;2022-12-10T16:50:44;2.30;99.90
1107;DHT22;540;49.448;8.612;2022-12-10T16:53:15;2.40;99.90
1107;DHT22;540;49.448;8.612;2022-12-10T16:55:45;2.10;99.90
1107;DHT22;540;49.448;8.612;2022-12-10T16:58:14;2.40;99.90
1107;DHT22;540;49.448;8.612;2022-12-10T17:00:42;2.20;99.90
1107;DHT22;540;49.448;8.612;2022-12-10T17:03:12;2.40;99.90
1107;DHT22;540;49.448;8.612;2022-12-10T17:05:50;2.20;99.90
1107;DHT22;540;49.448;8.612;2022-12-10T17:08:19;2.20;99.90
1107;DHT22;540;49.448;8.612;2022-12-10T17:10:49;2.00;99.90
1107;DHT22;540;49.448;8.612;2022-12-10T17:13:35;1.70;99.90
1107;DHT22;540;49.448;8.612;2022-12-10T17:16:04;2.20;99.90
1107;DHT22;540;49.448;8.612;2022-12-10T17:18:33;2.20;99.90
1107;DHT22;540;49.448;8.612;2022-12-10T17:21:01;1.60;99.90
1107;DHT22;540;49.448;8.612;2022-12-10T17:23:29;2.20;99.90
1107;DHT22;540;49.448;8.612;2022-12-10T17:26:01;1.80;99.90
1107;DHT22;540;49.448;8.612;2022-12-10T17:28:30;2.50;99.90
1107;DHT22;540;49.448;8.612;2022-12-10T17:30:58;2.30;99.90
1107;DHT22;540;49.448;8.612;2022-12-10T17:33:26;2.60;99.90
1107;DHT22;540;49.448;8.612;2022-12-10T17:35:54;2.50;99.90
1107;DHT22;540;49.448;8.612;2022-12-10T17:38:23;2.50;99.90
1107;DHT22;540;49.448;8.612;2022-12-10T17:40:52;2.60;99.90
1107;DHT22;540;49.448;8.612;2022-12-10T17:43:22;2.70;99.90
1107;DHT22;540;49.448;8.612;2022-12-10T17:45:52;2.60;99.90
1107;DHT22;540;49.448;8.612;2022-12-10T17:48:21;2.40;99.90
1107;DHT22;540;49.448;8.612;2022-12-10T17:50:49;2.50;99.90
1107;DHT22;540;49.448;8.612;2022-12-10T17:53:17;2.50;99.90
1107;DHT22;540;49.448;8.612;2022-12-10T17:55:47;2.60;99.90
1107;DHT22;540;49.448;8.612;2022-12-10T17:58:16;2.50;99.90
1107;DHT22;540;49.448;8.612;2022-12-10T18:00:49;2.60;99.90
1107;DHT22;540;49.448;8.612;2022-12-10T18:03:17;2.50;99.90
1107;DHT22;540;49.448;8.612;2022-12-10T18:05:45;2.70;99.90
1107;DHT22;540;49.448;8.612;2022-12-10T18:08:13;2.70;99.90
1107;DHT22;540;49.448;8.612;2022-12-10T18:10:42;2.60;99.90
1107;DHT22;540;49.448;8.612;2022-12-10T18:13:10;2.70;99.90
1107;DHT22;540;49.448;8.612;2022-12-10T18:15:38;2.60;99.90
1107;DHT22;540;49.448;8.612;2022-12-10T18:18:09;2.50;99.90
1107;DHT22;540;49.448;8.612;2022-12-10T18:20:39;2.70;99.90
1107;DHT22;540;49.448;8.612;2022-12-10T18:23:09;2.70;99.90
1107;DHT22;540;49.448;8.612;2022-12-10T18:25:39;2.50;99.90
1107;DHT22;540;49.448;8.612;2022-12-10T18:30:58;2.40;99.90
1107;DHT22;540;49.448;8.612;2022-12-10T18:33:39;2.70;99.90
1107;DHT22;540;49.448;8.612;2022-12-10T18:36:08;2.50;99.90
1107;DHT22;540;49.448;8.612;2022-12-10T18:38:39;2.50;99.90
1107;DHT22;540;49.448;8.612;2022-12-10T18:41:09;2.60;99.90
1107;DHT22;540;49.448;8.612;2022-12-10T18:43:37;2.50;99.90
1107;DHT22;540;49.448;8.612;2022-12-10T18:46:05;2.60;99.90
1107;DHT22;540;49.448;8.612;2022-12-10T18:48:35;2.70;99.90
1107;DHT22;540;49.448;8.612;2022-12-10T18:51:03;2.60;99.90
1107;DHT22;540;49.448;8.612;2022-12-10T18:53:30;2.30;99.90
1107;DHT22;540;49.448;8.612;2022-12-10T18:55:58;2.40;99.90
1107;DHT22;540;49.448;8.612;2022-12-10T18:58:26;2.70;99.90
1107;DHT22;540;49.448;8.612;2022-12-10T19:00:54;2.40;99.90
1107;DHT22;540;49.448;8.612;2022-12-10T19:03:22;2.60;99.90
1107;DHT22;540;49.448;8.612;2022-12-10T19:05:51;2.40;99.90
1107;DHT22;540;49.448;8.612;2022-12-10T19:08:19;2.30;99.90
1107;DHT22;540;49.448;8.612;2022-12-10T19:10:47;2.30;99.90
1107;DHT22;540;49.448;8.612;2022-12-10T19:13:14;2.20;99.90
1107;DHT22;540;49.448;8.612;2022-12-10T19:15:42;2.10;99.90
1107;DHT22;540;49.448;8.612;2022-12-10T19:18:12;2.30;99.90
1107;DHT22;540;49.448;8.612;2022-12-10T19:20:41;2.10;99.90
1107;DHT22;540;49.448;8.612;2022-12-10T19:23:10;2.20;99.90
1107;DHT22;540;49.448;8.612;2022-12-10T19:25:39;1.90;99.90
1107;DHT22;540;49.448;8.612;2022-12-10T19:28:08;1.70;99.90
1107;DHT22;540;49.448;8.612;2022-12-10T19:30:45;1.80;99.90
1107;DHT22;540;49.448;8.612;2022-12-10T19:33:12;1.70;99.90
1107;DHT22;540;49.448;8.612;2022-12-10T19:35:40;1.60;99.90
1107;DHT22;540;49.448;8.612;2022-12-10T19:38:10;1.60;99.90
1107;DHT22;540;49.448;8.612;2022-12-10T19:40:40;1.60;99.90
1107;DHT22;540;49.448;8.612;2022-12-10T19:43:08;1.50;99.90
1107;DHT22;540;49.448;8.612;2022-12-10T19:45:40;1.60;99.90
1107;DHT22;540;49.448;8.612;2022-12-10T19:48:08;1.30;99.90
1107;DHT22;540;49.448;8.612;2022-12-10T19:50:36;1.40;99.90
1107;DHT22;540;49.448;8.612;2022-12-10T19:53:04;1.30;99.90
1107;DHT22;540;49.448;8.612;2022-12-10T19:55:34;1.60;99.90
1107;DHT22;540;49.448;8.612;2022-12-10T19:58:01;1.40;99.90
1107;DHT22;540;49.448;8.612;2022-12-10T20:00:31;1.40;99.90
1107;DHT22;540;49.448;8.612;2022-12-10T20:02:59;1.30;99.90
1107;DHT22;540;49.448;8.612;2022-12-10T20:05:28;1.20;99.90
1107;DHT22;540;49.448;8.612;2022-12-10T20:07:55;1.10;99.90
1107;DHT22;540;49.448;8.612;2022-12-10T20:10:25;1.30;99.90
1107;DHT22;540;49.448;8.612;2022-12-10T20:12:55;1.00;99.90
1107;DHT22;540;49.448;8.612;2022-12-10T20:15:24;1.10;99.90
1107;DHT22;540;49.448;8.612;2022-12-10T20:17:52;0.90;99.90
1107;DHT22;540;49.448;8.612;2022-12-10T20:20:22;1.10;99.90
1107;DHT22;540;49.448;8.612;2022-12-10T20:22:51;1.20;99.90
1107;DHT22;540;49.448;8.612;2022-12-10T20:25:21;0.60;99.90
1107;DHT22;540;49.448;8.612;2022-12-10T20:27:50;1.00;99.90
1107;DHT22;540;49.448;8.612;2022-12-10T20:30:22;0.80;99.90
1107;DHT22;540;49.448;8.612;2022-12-10T20:32:51;1.10;99.90
1107;DHT22;540;49.448;8.612;2022-12-10T20:35:20;1.10;99.90
1107;DHT22;540;49.448;8.612;2022-12-10T20:37:49;1.00;99.90
1107;DHT22;540;49.448;8.612;2022-12-10T20:40:18;1.00;99.90
1107;DHT22;540;49.448;8.612;2022-12-10T20:43:01;0.80;99.90
1107;DHT22;540;49.448;8.612;2022-12-10T20:45:31;1.20;99.90
1107;DHT22;540;49.448;8.612;2022-12-10T20:47:58;0.80;99.90
1107;DHT22;540;49.448;8.612;2022-12-10T20:50:27;0.90;99.90
1107;DHT22;540;49.448;8.612;2022-12-10T20:52:55;0.80;99.90
1107;DHT22;540;49.448;8.612;2022-12-10T20:55:23;0.80;99.90
1107;DHT22;540;49.448;8.612;2022-12-10T20:57:50;0.70;99.90
1107;DHT22;540;49.448;8.612;2022-12-10T21:00:20;0.60;99.90
1107;DHT22;540;49.448;8.612;2022-12-10T21:02:49;0.70;99.90
